Time;durP1;ratioP1;P1;durP2;ratioP2;P2;SDS_P1;SDS_P2;PMS_P1;PMS_P2;Temp;Humidity;BMP_temperature;BMP_pressure;BME280_temperature;BME280_humidity;BME280_pressure;Samples;Min_cycle;Max_cycle;Signal;HPM_P1;HPM_P2
2021/06/08 00:01:55;;;;;;;6.55;5.93;;;11.70;98.80;;;;;;5052612;28;20017;-77
2021/06/08 00:04:21;;;;;;;9.10;7.05;;;11.70;98.00;;;;;;5050869;28;20390;-77
2021/06/08 00:06:47;;;;;;;7.50;6.47;;;11.70;97.60;;;;;;5034189;28;20057;-77
2021/06/08 00:09:13;;;;;;;9.35;7.20;;;11.70;97.40;;;;;;5032504;28;20116;-76
2021/06/08 00:11:38;;;;;;;10.68;7.43;;;11.60;97.50;;;;;;5031326;28;20030;-76
2021/06/08 00:14:04;;;;;;;8.65;7.28;;;11.60;99.00;;;;;;5032553;28;20029;-76
2021/06/08 00:16:30;;;;;;;10.93;7.38;;;11.40;99.90;;;;;;5036560;28;20029;-76
2021/06/08 00:18:55;;;;;;;9.02;7.38;;;11.40;99.90;;;;;;5036340;28;20064;-76
2021/06/08 00:21:22;;;;;;;8.40;7.60;;;11.30;99.90;;;;;;5039020;28;20037;-76
2021/06/08 00:23:47;;;;;;;9.10;7.22;;;11.30;99.90;;;;;;5047952;28;20033;-76
2021/06/08 00:26:13;;;;;;;11.05;6.32;;;11.30;99.90;;;;;;5055793;28;20371;-76
2021/06/08 00:28:39;;;;;;;7.05;5.93;;;11.30;99.90;;;;;;5049182;28;20397;-77
2021/06/08 00:31:05;;;;;;;7.88;6.53;;;11.30;99.50;;;;;;5036227;28;20034;-77
2021/06/08 00:33:30;;;;;;;10.20;7.68;;;11.30;99.90;;;;;;5034901;28;20066;-76
2021/06/08 00:35:56;;;;;;;9.43;7.13;;;11.30;99.60;;;;;;5036040;28;20080;-76
2021/06/08 00:38:22;;;;;;;7.63;6.03;;;11.30;98.90;;;;;;5036111;28;20030;-77
2021/06/08 00:40:47;;;;;;;9.48;6.50;;;11.30;98.30;;;;;;5035910;28;20033;-76
2021/06/08 00:43:13;;;;;;;7.97;6.78;;;11.30;99.50;;;;;;5036000;28;20048;-76
2021/06/08 00:45:39;;;;;;;8.05;5.68;;;11.30;99.20;;;;;;5035756;28;20128;-76
2021/06/08 00:48:06;;;;;;;9.93;6.85;;;11.20;99.40;;;;;;5034625;28;20022;-76
2021/06/08 00:50:33;;;;;;;8.35;6.55;;;11.20;99.40;;;;;;5035735;28;20541;-76
2021/06/08 00:52:58;;;;;;;7.30;6.25;;;11.20;99.90;;;;;;5035595;28;20044;-77
2021/06/08 00:55:24;;;;;;;6.75;6.03;;;11.20;99.90;;;;;;5044377;28;20029;-76
2021/06/08 00:57:50;;;;;;;8.63;6.35;;;11.10;99.90;;;;;;5043569;28;20033;-76
2021/06/08 01:00:17;;;;;;;8.02;6.55;;;11.10;99.90;;;;;;5035609;28;20113;-77
2021/06/08 01:02:43;;;;;;;6.82;6.13;;;11.00;99.90;;;;;;5034246;28;20021;-77
2021/06/08 01:05:09;;;;;;;9.05;6.82;;;11.00;99.90;;;;;;5035488;28;20026;-77
2021/06/08 01:07:36;;;;;;;9.90;7.00;;;10.90;99.90;;;;;;5035601;28;20075;-77
2021/06/08 01:10:08;;;;;;;8.82;5.90;;;11.00;99.90;;;;;;5035266;28;20065;-77
2021/06/08 01:12:34;;;;;;;6.47;5.70;;;10.90;99.90;;;;;;5035456;28;20018;-77
2021/06/08 01:14:59;;;;;;;6.75;5.25;;;10.90;99.90;;;;;;5035299;28;20531;-77
2021/06/08 01:17:25;;;;;;;10.95;7.25;;;10.90;99.90;;;;;;5034151;28;20025;-76
2021/06/08 01:19:55;;;;;;;6.07;5.47;;;10.80;99.90;;;;;;5035212;28;20470;-77
2021/06/08 01:22:21;;;;;;;8.10;5.70;;;10.80;99.90;;;;;;5035249;28;20022;-77
2021/06/08 01:24:49;;;;;;;7.63;6.18;;;10.80;99.90;;;;;;5036976;28;20116;-76
2021/06/08 01:27:15;;;;;;;7.15;5.47;;;10.70;99.90;;;;;;5034982;28;20032;-76
2021/06/08 01:29:43;;;;;;;8.15;6.30;;;10.70;99.90;;;;;;5053161;28;20401;-77
2021/06/08 01:32:10;;;;;;;6.50;5.78;;;10.60;99.90;;;;;;5053850;28;20104;-76
2021/06/08 01:34:37;;;;;;;6.90;6.15;;;10.60;99.90;;;;;;5055006;28;20489;-76
2021/06/08 01:37:04;;;;;;;7.97;6.38;;;10.60;99.90;;;;;;5053604;28;20067;-77
2021/06/08 01:39:32;;;;;;;6.07;5.47;;;10.60;99.90;;;;;;5053299;28;20033;-76
2021/06/08 01:41:59;;;;;;;6.18;5.43;;;10.50;99.90;;;;;;5039901;28;20018;-77
2021/06/08 01:44:25;;;;;;;5.88;5.20;;;10.50;99.90;;;;;;5033527;28;20406;-77
2021/06/08 01:46:50;;;;;;;8.35;5.65;;;10.50;99.90;;;;;;5034775;28;20026;-77
2021/06/08 01:49:16;;;;;;;6.40;5.45;;;10.50;99.90;;;;;;5033454;28;20044;-76
2021/06/08 01:51:48;;;;;;;6.63;5.20;;;10.50;99.90;;;;;;5034705;28;20029;-76
2021/06/08 01:54:34;;;;;;;6.75;5.22;;;10.50;99.90;;;;;;5036676;28;20382;-76
2021/06/08 01:57:24;;;;;;;5.45;5.00;;;10.40;99.90;;;;;;5054575;28;20533;-77
2021/06/08 02:00:01;;;;;;;6.10;5.50;;;10.40;99.90;;;;;;5052826;28;20033;-76
2021/06/08 02:02:32;;;;;;;5.85;5.25;;;10.40;99.90;;;;;;5052368;28;20013;-76
2021/06/08 02:05:24;;;;;;;6.75;5.65;;;10.30;99.90;;;;;;5053256;28;20071;-77
2021/06/08 02:07:53;;;;;;;5.80;5.03;;;10.30;99.90;;;;;;5054630;28;20028;-77
2021/06/08 02:10:40;;;;;;;7.20;5.68;;;10.30;99.90;;;;;;5044742;28;20033;-77
2021/06/08 02:13:24;;;;;;;5.40;4.90;;;10.20;99.90;;;;;;5034407;28;20029;-77
2021/06/08 02:16:19;;;;;;;5.32;4.82;;;10.30;99.90;;;;;;5032934;28;20069;-76
2021/06/08 02:18:47;;;;;;;7.63;5.22;;;10.30;99.90;;;;;;5027494;28;20026;-77
2021/06/08 02:21:16;;;;;;;7.63;5.45;;;10.20;99.90;;;;;;5048704;28;20100;-76
2021/06/08 02:23:44;;;;;;;6.32;5.32;;;10.20;99.90;;;;;;5052349;28;20021;-77
2021/06/08 02:26:11;;;;;;;6.38;5.57;;;10.30;99.90;;;;;;5033314;28;20060;-77
2021/06/08 02:28:38;;;;;;;7.20;6.30;;;10.30;99.90;;;;;;5035566;28;20056;-76
2021/06/08 02:31:07;;;;;;;6.35;4.97;;;10.30;99.90;;;;;;5043675;28;20037;-76
2021/06/08 02:33:35;;;;;;;7.07;5.78;;;10.30;99.90;;;;;;5033996;28;20045;-76
2021/06/08 02:36:04;;;;;;;6.82;5.43;;;10.20;99.90;;;;;;5051151;28;20025;-76
2021/06/08 02:38:33;;;;;;;10.60;5.53;;;10.20;99.90;;;;;;5053658;28;20024;-76
2021/06/08 02:41:01;;;;;;;7.68;5.72;;;10.20;99.90;;;;;;5053185;28;20025;-76
2021/06/08 02:43:27;;;;;;;6.70;5.63;;;10.10;99.90;;;;;;5053712;28;20021;-76
2021/06/08 02:45:54;;;;;;;5.60;5.10;;;10.00;99.90;;;;;;5053860;28;20033;-76
2021/06/08 02:48:20;;;;;;;5.75;5.25;;;10.00;99.90;;;;;;5053679;28;20021;-76
2021/06/08 02:50:48;;;;;;;6.53;4.97;;;10.00;99.90;;;;;;5049595;28;20064;-77
2021/06/08 02:53:16;;;;;;;5.65;5.15;;;10.00;99.90;;;;;;5048845;28;20048;-77
2021/06/08 02:55:43;;;;;;;8.95;5.63;;;10.00;99.90;;;;;;5041957;28;20033;-77
2021/06/08 02:58:10;;;;;;;5.53;5.03;;;10.00;99.90;;;;;;5032143;28;20028;-77
2021/06/08 03:00:36;;;;;;;6.00;5.35;;;10.00;99.90;;;;;;5032023;28;20033;-77
2021/06/08 03:03:04;;;;;;;5.80;5.22;;;10.00;99.90;;;;;;5031978;28;20083;-77
2021/06/08 03:05:38;;;;;;;9.68;5.53;;;9.90;99.90;;;;;;5033372;28;20025;-77
2021/06/08 03:08:24;;;;;;;9.45;5.68;;;10.00;99.90;;;;;;5033379;28;20021;-77
2021/06/08 03:10:51;;;;;;;6.40;5.50;;;10.00;99.90;;;;;;5031878;28;20029;-77
2021/06/08 03:13:20;;;;;;;7.00;4.55;;;10.00;99.90;;;;;;5033230;28;20034;-77
2021/06/08 03:15:53;;;;;;;5.03;4.55;;;10.10;99.90;;;;;;5033104;28;20025;-76
2021/06/08 03:18:24;;;;;;;5.93;4.78;;;10.10;99.90;;;;;;5033118;28;20022;-77
2021/06/08 03:20:55;;;;;;;7.60;5.33;;;10.20;99.90;;;;;;5035424;28;20122;-77
2021/06/08 03:23:23;;;;;;;6.93;6.20;;;10.40;99.90;;;;;;5039812;28;20030;-76
2021/06/08 03:25:49;;;;;;;8.05;5.47;;;10.50;99.90;;;;;;5031557;28;20555;-77
2021/06/08 03:28:19;;;;;;;9.70;5.35;;;10.70;99.90;;;;;;5031853;28;20112;-77
2021/06/08 03:30:45;;;;;;;7.10;5.07;;;10.90;99.90;;;;;;5041262;28;20032;-76
2021/06/08 03:33:12;;;;;;;5.45;4.63;;;11.10;99.00;;;;;;5052559;28;20029;-76
2021/06/08 03:35:38;;;;;;;6.93;5.63;;;11.40;99.50;;;;;;5051555;28;20060;-76
2021/06/08 03:38:05;;;;;;;8.40;4.80;;;11.60;95.20;;;;;;5052833;28;20028;-76
2021/06/08 03:40:31;;;;;;;6.05;4.82;;;11.80;94.40;;;;;;5051592;28;20033;-76
2021/06/08 03:42:57;;;;;;;9.18;5.07;;;12.10;91.00;;;;;;5052794;28;20443;-76
2021/06/08 03:45:23;;;;;;;10.52;5.45;;;12.30;89.60;;;;;;5051103;28;20033;-76
2021/06/08 03:47:55;;;;;;;8.07;5.03;;;12.50;87.60;;;;;;5051300;28;20116;-76
2021/06/08 03:50:21;;;;;;;6.27;5.67;;;12.70;86.20;;;;;;5056149;28;20040;-76
2021/06/08 03:52:50;;;;;;;5.60;5.10;;;12.90;85.60;;;;;;5055234;28;20060;-76
2021/06/08 03:55:21;;;;;;;8.70;5.25;;;13.10;83.70;;;;;;5055664;28;20106;-76
2021/06/08 03:57:51;;;;;;;6.18;5.57;;;13.30;82.30;;;;;;5055502;28;20025;-76
2021/06/08 04:00:18;;;;;;;6.97;5.95;;;13.50;79.50;;;;;;5055198;28;20028;-76
2021/06/08 04:02:45;;;;;;;9.48;6.35;;;13.60;78.80;;;;;;5056752;28;20504;-76
2021/06/08 04:05:11;;;;;;;8.95;6.43;;;13.70;79.30;;;;;;5056307;28;20025;-76
2021/06/08 04:07:42;;;;;;;9.55;6.07;;;13.70;80.10;;;;;;5055321;28;20035;-75
2021/06/08 04:10:13;;;;;;;10.95;6.38;;;13.80;80.00;;;;;;5056552;28;20036;-76
2021/06/08 04:12:39;;;;;;;10.88;6.68;;;14.10;78.70;;;;;;5055353;28;20028;-75
2021/06/08 04:15:06;;;;;;;11.98;7.05;;;14.20;77.70;;;;;;5056731;28;20025;-76
2021/06/08 04:17:32;;;;;;;16.88;8.25;;;14.50;77.10;;;;;;5055091;28;20470;-76
2021/06/08 04:20:00;;;;;;;23.55;9.52;;;14.70;77.00;;;;;;5038795;28;20120;-75
2021/06/08 04:22:33;;;;;;;18.15;8.65;;;14.70;79.10;;;;;;5035171;28;20455;-76
2021/06/08 04:24:59;;;;;;;21.38;8.23;;;15.00;78.20;;;;;;5036200;28;20030;-76
2021/06/08 04:27:27;;;;;;;19.08;8.70;;;15.30;77.30;;;;;;5036366;28;20037;-76
2021/06/08 04:29:53;;;;;;;18.50;8.27;;;15.50;77.50;;;;;;5035938;28;20057;-76
2021/06/08 04:32:20;;;;;;;13.27;8.23;;;15.70;78.00;;;;;;5049350;28;20025;-75
2021/06/08 04:34:53;;;;;;;16.77;13.07;;;15.80;78.50;;;;;;5054495;28;20021;-76
2021/06/08 04:37:19;;;;;;;15.20;12.00;;;15.90;80.70;;;;;;5056108;28;20112;-76
2021/06/08 04:39:45;;;;;;;20.83;15.18;;;15.90;80.80;;;;;;5055958;28;20091;-76
2021/06/08 04:42:13;;;;;;;14.95;12.10;;;16.00;81.40;;;;;;5055980;28;20029;-76
2021/06/08 04:44:46;;;;;;;12.73;8.65;;;16.00;82.40;;;;;;5055951;28;20466;-76
2021/06/08 04:47:12;;;;;;;22.15;12.98;;;16.10;82.90;;;;;;5055715;28;20036;-75
2021/06/08 04:49:39;;;;;;;19.50;11.32;;;16.20;82.10;;;;;;5055517;28;20098;-76
2021/06/08 04:52:06;;;;;;;15.77;10.48;;;16.20;81.00;;;;;;5055776;28;20064;-75
2021/06/08 04:54:32;;;;;;;14.95;9.93;;;16.40;81.40;;;;;;5055385;28;20029;-76
2021/06/08 04:56:57;;;;;;;14.52;10.23;;;16.40;83.50;;;;;;5055597;28;20024;-75
2021/06/08 04:59:38;;;;;;;15.57;10.25;;;16.50;85.60;;;;;;5053128;28;20037;-76
2021/06/08 05:02:10;;;;;;;13.18;10.18;;;16.50;86.20;;;;;;5035647;28;20017;-76
2021/06/08 05:04:40;;;;;;;13.90;8.90;;;16.60;86.10;;;;;;5034301;28;20022;-76
2021/06/08 05:07:08;;;;;;;12.50;9.15;;;16.60;85.30;;;;;;5035615;28;20033;-76
2021/06/08 05:09:41;;;;;;;12.07;7.50;;;16.80;85.40;;;;;;5047933;28;20033;-75
2021/06/08 05:12:12;;;;;;;9.85;7.75;;;16.80;80.60;;;;;;5034216;28;20033;-75
2021/06/08 05:14:48;;;;;;;9.38;6.28;;;17.00;77.90;;;;;;5035433;28;20022;-76
2021/06/08 05:17:18;;;;;;;8.43;6.47;;;17.10;76.00;;;;;;5035435;28;20033;-76
2021/06/08 05:19:45;;;;;;;6.35;5.35;;;17.20;74.10;;;;;;5035262;28;20103;-76
2021/06/08 05:22:12;;;;;;;6.90;5.93;;;17.30;72.90;;;;;;5044189;28;20112;-76
2021/06/08 05:24:39;;;;;;;6.93;5.07;;;17.40;71.60;;;;;;5054848;28;20497;-75
2021/06/08 05:27:05;;;;;;;5.78;5.28;;;17.60;69.10;;;;;;5037096;28;20030;-75
2021/06/08 05:29:31;;;;;;;6.65;5.03;;;17.70;69.10;;;;;;5044318;28;20036;-75
2021/06/08 05:31:58;;;;;;;6.32;4.85;;;17.80;69.40;;;;;;5036211;28;20026;-76
2021/06/08 05:34:25;;;;;;;7.15;5.80;;;18.00;69.30;;;;;;5036203;28;20025;-75
2021/06/08 05:36:51;;;;;;;6.32;5.13;;;18.00;68.90;;;;;;5045688;28;20485;-75
2021/06/08 05:39:17;;;;;;;6.03;5.53;;;18.20;70.00;;;;;;5048266;28;20425;-75
2021/06/08 05:41:43;;;;;;;5.68;5.18;;;18.40;71.30;;;;;;5043978;28;20014;-75
2021/06/08 05:44:10;;;;;;;5.50;5.00;;;18.50;69.90;;;;;;5048671;28;20052;-75
2021/06/08 05:46:37;;;;;;;4.75;4.35;;;18.70;66.60;;;;;;5053448;28;20025;-75
2021/06/08 05:49:06;;;;;;;5.55;5.05;;;18.80;65.30;;;;;;5054517;28;20115;-74
2021/06/08 05:51:37;;;;;;;6.00;5.38;;;18.90;65.20;;;;;;5054409;28;20025;-75
2021/06/08 05:54:07;;;;;;;6.15;5.00;;;19.00;64.40;;;;;;5043311;28;20029;-75
2021/06/08 05:56:34;;;;;;;6.35;5.68;;;19.10;65.50;;;;;;5045203;28;20013;-75
2021/06/08 05:59:00;;;;;;;6.95;5.50;;;19.30;65.20;;;;;;5042899;28;20060;-75
2021/06/08 06:01:27;;;;;;;6.22;5.63;;;19.40;65.30;;;;;;5037896;28;20060;-75
2021/06/08 06:03:53;;;;;;;8.10;6.18;;;19.60;64.80;;;;;;5033126;28;20021;-75
2021/06/08 06:06:19;;;;;;;5.75;5.25;;;19.80;63.80;;;;;;5045065;28;20551;-75
2021/06/08 06:08:45;;;;;;;6.47;5.88;;;19.90;63.60;;;;;;5049563;28;20028;-75
2021/06/08 06:11:14;;;;;;;6.10;5.50;;;20.00;63.80;;;;;;5052796;28;20114;-75
2021/06/08 06:13:54;;;;;;;9.10;5.88;;;20.20;63.60;;;;;;5052036;28;20016;-75
2021/06/08 06:16:20;;;;;;;7.85;5.88;;;20.40;63.70;;;;;;5051093;28;20031;-75
2021/06/08 06:18:46;;;;;;;9.57;6.85;;;20.60;63.50;;;;;;5048383;28;20028;-74
2021/06/08 06:21:14;;;;;;;9.98;5.95;;;20.70;63.70;;;;;;5040325;28;20393;-75
2021/06/08 06:23:40;;;;;;;9.55;7.93;;;20.90;62.30;;;;;;5032340;28;20025;-75
2021/06/08 06:26:06;;;;;;;11.25;7.65;;;21.00;62.30;;;;;;5044381;28;20059;-75
2021/06/08 06:28:33;;;;;;;10.30;6.20;;;21.30;63.10;;;;;;5052682;28;20549;-75
2021/06/08 06:30:59;;;;;;;13.05;7.18;;;21.50;62.20;;;;;;5034575;28;20065;-75
2021/06/08 06:33:24;;;;;;;10.80;7.47;;;21.70;61.30;;;;;;5033956;28;20021;-75
2021/06/08 06:35:51;;;;;;;9.40;6.82;;;21.90;60.00;;;;;;5041365;28;20148;-75
2021/06/08 06:38:18;;;;;;;13.48;7.40;;;21.90;60.20;;;;;;5038517;28;20502;-75
2021/06/08 06:40:45;;;;;;;18.15;8.50;;;22.20;61.50;;;;;;5052388;28;20024;-75
2021/06/08 06:43:24;;;;;;;14.65;8.07;;;22.30;54.90;;;;;;5053636;28;20028;-75
2021/06/08 06:45:52;;;;;;;14.30;8.18;;;22.50;52.90;;;;;;5052509;28;20056;-75
2021/06/08 06:48:18;;;;;;;15.60;7.75;;;22.50;51.30;;;;;;5053753;28;20016;-75
2021/06/08 06:50:46;;;;;;;11.48;6.95;;;22.70;49.40;;;;;;5052082;28;20040;-73
2021/06/08 06:53:11;;;;;;;15.75;7.57;;;22.90;50.70;;;;;;5053091;28;20507;-75
2021/06/08 06:55:38;;;;;;;11.00;5.70;;;23.00;50.20;;;;;;5051713;28;20029;-74
2021/06/08 06:58:05;;;;;;;9.93;5.35;;;23.10;48.80;;;;;;5052079;28;20017;-75
2021/06/08 07:00:31;;;;;;;6.70;4.50;;;23.20;49.20;;;;;;5053135;28;20052;-75
2021/06/08 07:02:59;;;;;;;4.78;4.00;;;23.40;47.70;;;;;;5052000;28;20462;-74
2021/06/08 07:05:31;;;;;;;8.32;4.60;;;23.50;46.70;;;;;;5053258;28;20100;-75
2021/06/08 07:08:01;;;;;;;6.88;4.72;;;23.60;47.30;;;;;;5051522;28;20021;-75
2021/06/08 07:10:27;;;;;;;6.90;4.43;;;23.70;46.90;;;;;;5016721;28;20090;-75
2021/06/08 07:12:55;;;;;;;4.32;3.92;;;23.80;46.50;;;;;;5031999;28;20102;-75
2021/06/08 07:15:25;;;;;;;7.35;4.20;;;23.70;43.40;;;;;;5033220;28;20021;-75
2021/06/08 07:17:51;;;;;;;7.80;4.10;;;23.90;43.50;;;;;;5033080;28;20394;-75
2021/06/08 07:20:18;;;;;;;3.78;3.45;;;24.00;43.90;;;;;;5032624;28;20033;-75
2021/06/08 07:22:45;;;;;;;3.72;3.40;;;24.00;43.10;;;;;;5032784;28;20024;-74
2021/06/08 07:25:11;;;;;;;6.57;4.50;;;24.00;42.30;;;;;;5038502;28;20391;-75
2021/06/08 07:27:37;;;;;;;4.15;3.65;;;24.10;42.30;;;;;;5046401;28;20136;-73
2021/06/08 07:30:07;;;;;;;7.15;4.07;;;24.10;40.80;;;;;;5030981;28;20117;-74
2021/06/08 07:33:30;;;;;;;4.07;3.20;;;24.10;40.20;;;;;;5048744;28;20033;-76
2021/06/08 07:36:21;;;;;;;5.55;3.15;;;24.30;41.10;;;;;;5007631;28;20041;-74
2021/06/08 07:39:00;;;;;;;6.97;3.75;;;24.50;41.50;;;;;;5016712;28;20045;-75
2021/06/08 07:41:43;;;;;;;5.13;3.45;;;24.70;41.70;;;;;;5042009;28;20094;-74
2021/06/08 07:44:15;;;;;;;5.05;3.42;;;24.60;40.10;;;;;;5029407;28;20044;-74
2021/06/08 07:46:42;;;;;;;4.47;3.10;;;24.50;39.90;;;;;;5030720;28;20021;-75
2021/06/08 07:49:08;;;;;;;5.15;3.33;;;24.60;40.40;;;;;;5037631;28;20378;-75
2021/06/08 07:51:35;;;;;;;3.92;3.55;;;24.80;39.00;;;;;;5049364;28;20029;-75
2021/06/08 07:54:01;;;;;;;3.22;3.00;;;24.70;39.20;;;;;;5051020;28;20098;-75
2021/06/08 07:56:29;;;;;;;4.22;3.05;;;24.60;39.00;;;;;;5049326;28;20029;-74
2021/06/08 07:58:54;;;;;;;4.15;3.45;;;24.70;38.70;;;;;;5050123;28;20036;-75
2021/06/08 08:01:20;;;;;;;5.53;3.45;;;24.70;38.00;;;;;;5030695;28;20029;-75
2021/06/08 08:03:50;;;;;;;3.78;2.90;;;24.80;37.70;;;;;;5028557;28;20075;-74
2021/06/08 08:06:17;;;;;;;5.43;3.70;;;25.10;38.70;;;;;;5031473;28;20021;-74
2021/06/08 08:08:43;;;;;;;3.97;3.55;;;25.20;37.90;;;;;;5041899;28;20033;-74
2021/06/08 08:11:15;;;;;;;4.70;3.75;;;25.30;37.70;;;;;;5050512;28;20123;-74
2021/06/08 08:13:44;;;;;;;9.32;3.60;;;25.40;37.40;;;;;;5048427;28;20034;-74
2021/06/08 08:16:10;;;;;;;5.40;3.55;;;25.50;36.50;;;;;;5049839;28;20021;-75
2021/06/08 08:18:37;;;;;;;4.32;3.28;;;25.60;37.00;;;;;;5050135;28;20041;-75
2021/06/08 08:21:07;;;;;;;5.50;4.32;;;25.80;36.50;;;;;;5041157;28;20025;-75
2021/06/08 08:23:33;;;;;;;7.90;4.18;;;25.30;36.90;;;;;;5048887;28;20043;-75
2021/06/08 08:26:04;;;;;;;5.63;3.63;;;25.20;36.80;;;;;;5040826;28;20029;-75
2021/06/08 08:28:34;;;;;;;6.63;3.92;;;25.30;37.10;;;;;;5024732;28;20038;-75
2021/06/08 08:31:02;;;;;;;6.40;3.83;;;25.40;36.10;;;;;;5047418;28;20397;-75
2021/06/08 08:33:29;;;;;;;4.38;3.92;;;25.60;36.10;;;;;;5045898;28;20458;-75
2021/06/08 08:35:55;;;;;;;6.00;3.67;;;25.90;35.80;;;;;;5049255;28;20359;-75
2021/06/08 08:38:21;;;;;;;7.80;3.88;;;25.90;35.40;;;;;;5035368;28;20037;-75
2021/06/08 08:40:51;;;;;;;5.75;3.80;;;25.90;35.90;;;;;;5034260;28;20032;-75
2021/06/08 08:43:17;;;;;;;7.28;3.90;;;26.10;36.90;;;;;;5039973;28;20537;-75
2021/06/08 08:45:43;;;;;;;4.63;3.58;;;25.90;35.70;;;;;;5054636;28;20052;-75
2021/06/08 08:48:12;;;;;;;5.40;3.90;;;25.90;35.70;;;;;;5055736;28;20471;-76
2021/06/08 08:50:41;;;;;;;4.18;3.72;;;26.00;36.40;;;;;;5055563;28;20075;-75
2021/06/08 08:53:08;;;;;;;5.80;3.75;;;25.80;35.80;;;;;;5055140;28;20029;-75
2021/06/08 08:55:35;;;;;;;8.07;3.80;;;25.70;36.30;;;;;;5052946;28;20029;-75
2021/06/08 08:58:04;;;;;;;6.22;4.18;;;25.30;36.60;;;;;;5055516;28;20033;-76
2021/06/08 09:00:32;;;;;;;5.80;4.03;;;25.20;36.40;;;;;;5053962;28;20032;-76
2021/06/08 09:03:03;;;;;;;6.32;4.35;;;25.30;36.90;;;;;;5055171;28;20040;-76
2021/06/08 09:05:37;;;;;;;5.13;3.40;;;25.20;36.90;;;;;;5054537;28;20028;-75
2021/06/08 09:08:04;;;;;;;6.70;3.92;;;25.20;37.20;;;;;;5054169;28;20366;-76
2021/06/08 09:10:35;;;;;;;4.00;3.70;;;25.40;36.20;;;;;;5055423;28;20069;-76
2021/06/08 09:13:01;;;;;;;4.18;3.88;;;25.80;34.90;;;;;;5055389;28;20025;-76
2021/06/08 09:15:27;;;;;;;4.70;4.00;;;26.10;35.30;;;;;;5048123;28;20086;-76
2021/06/08 09:17:58;;;;;;;5.47;3.40;;;26.50;37.20;;;;;;5034498;28;20116;-76
2021/06/08 09:20:24;;;;;;;4.35;3.95;;;26.20;34.70;;;;;;5034123;28;20018;-76
2021/06/08 09:22:50;;;;;;;5.38;3.38;;;26.00;36.50;;;;;;5035318;28;20040;-76
2021/06/08 09:25:37;;;;;;;4.30;3.90;;;25.70;35.50;;;;;;5036885;28;20025;-76
2021/06/08 09:28:12;;;;;;;3.65;3.35;;;26.00;35.30;;;;;;5050273;28;20124;-76
2021/06/08 09:30:38;;;;;;;5.20;3.78;;;26.50;35.70;;;;;;5041483;28;20513;-76
2021/06/08 09:33:19;;;;;;;3.70;3.40;;;26.80;35.00;;;;;;5053190;28;20052;-76
2021/06/08 09:35:52;;;;;;;5.43;3.80;;;26.40;35.10;;;;;;5037338;28;20116;-76
2021/06/08 09:38:18;;;;;;;4.80;4.32;;;26.00;35.60;;;;;;5040680;28;20037;-76
2021/06/08 09:40:44;;;;;;;5.60;3.90;;;25.90;35.10;;;;;;5037187;28;20037;-76
2021/06/08 09:43:11;;;;;;;3.83;3.45;;;26.00;35.90;;;;;;5037583;28;20064;-76
2021/06/08 09:45:47;;;;;;;6.25;4.07;;;25.90;35.20;;;;;;5034539;28;20049;-75
2021/06/08 09:48:14;;;;;;;5.30;4.10;;;25.90;36.30;;;;;;5034668;28;20100;-75
2021/06/08 09:50:42;;;;;;;3.58;3.28;;;25.30;36.50;;;;;;5046432;28;20045;-75
2021/06/08 09:53:15;;;;;;;4.38;3.97;;;24.80;36.70;;;;;;5046635;28;20021;-76
2021/06/08 09:56:05;;;;;;;4.18;3.78;;;24.80;37.40;;;;;;5041726;28;20095;-76
2021/06/08 09:58:33;;;;;;;4.40;4.00;;;24.80;37.30;;;;;;5030710;28;20036;-76
2021/06/08 10:01:20;;;;;;;5.57;4.15;;;24.80;38.00;;;;;;5034950;28;20020;-76
2021/06/08 10:03:57;;;;;;;8.20;4.20;;;24.80;38.20;;;;;;5047363;28;20048;-76
2021/06/08 10:06:34;;;;;;;7.10;4.18;;;25.30;38.40;;;;;;5043208;28;20029;-76
2021/06/08 10:09:04;;;;;;;4.35;3.92;;;25.80;37.80;;;;;;5038027;28;20041;-76
2021/06/08 10:11:34;;;;;;;4.88;3.50;;;26.40;37.60;;;;;;5044930;28;20027;-76
2021/06/08 10:14:17;;;;;;;5.05;4.03;;;26.40;35.90;;;;;;5043418;28;20479;-74
2021/06/08 10:16:43;;;;;;;6.88;4.03;;;26.00;36.20;;;;;;5047961;28;20073;-74
2021/06/08 10:19:11;;;;;;;4.00;3.58;;;25.60;36.00;;;;;;5039540;28;20025;-75
2021/06/08 10:21:41;;;;;;;6.93;3.72;;;25.30;35.50;;;;;;5047604;28;20158;-74
2021/06/08 10:24:12;;;;;;;6.32;4.25;;;25.20;36.40;;;;;;5045423;28;20116;-74
2021/06/08 10:26:41;;;;;;;4.37;3.97;;;25.00;36.40;;;;;;5040459;28;20044;-78
2021/06/08 10:29:10;;;;;;;4.18;3.40;;;24.90;36.60;;;;;;5041789;28;20029;-77
2021/06/08 10:31:38;;;;;;;4.38;3.80;;;25.30;36.30;;;;;;5036016;28;20057;-79
2021/06/08 10:34:06;;;;;;;4.22;3.65;;;25.70;35.40;;;;;;5030238;28;20074;-78
2021/06/08 10:36:33;;;;;;;4.35;3.95;;;25.90;34.70;;;;;;5030277;28;20371;-77
2021/06/08 10:39:00;;;;;;;3.78;3.47;;;25.80;34.60;;;;;;5031001;28;20048;-73
2021/06/08 10:41:26;;;;;;;6.63;3.58;;;25.50;34.90;;;;;;5032541;28;20025;-75
2021/06/08 10:43:52;;;;;;;4.18;3.88;;;25.40;36.30;;;;;;5045915;28;20043;-74
2021/06/08 10:46:25;;;;;;;7.10;6.28;;;25.20;37.50;;;;;;5051280;28;20025;-74
2021/06/08 10:48:52;;;;;;;5.10;4.43;;;25.20;37.90;;;;;;5051047;28;20521;-73
2021/06/08 10:51:21;;;;;;;7.95;4.28;;;24.90;38.00;;;;;;5050829;28;20119;-74
2021/06/08 10:53:57;;;;;;;6.78;4.05;;;25.00;38.30;;;;;;5051872;28;20031;-74
2021/06/08 10:56:32;;;;;;;4.88;4.13;;;24.80;38.00;;;;;;5041395;28;20037;-74
2021/06/08 10:58:59;;;;;;;8.35;4.07;;;24.80;37.60;;;;;;5045704;28;20080;-74
2021/06/08 11:01:45;;;;;;;6.43;4.18;;;24.90;37.50;;;;;;5050339;28;20391;-74
2021/06/08 11:04:27;;;;;;;11.75;4.78;;;25.00;37.20;;;;;;5051089;28;20036;-74
2021/06/08 11:06:58;;;;;;;7.15;4.53;;;25.00;36.80;;;;;;5049800;28;20497;-74
2021/06/08 11:09:23;;;;;;;4.22;3.92;;;25.50;37.00;;;;;;5051535;28;20548;-74
2021/06/08 11:11:52;;;;;;;5.13;4.50;;;25.60;36.00;;;;;;5032758;28;20116;-75
2021/06/08 11:14:42;;;;;;;6.32;3.83;;;25.60;35.20;;;;;;5037127;28;20118;-75
2021/06/08 11:17:10;;;;;;;7.00;3.63;;;25.90;35.20;;;;;;5048229;28;20372;-74
2021/06/08 11:19:44;;;;;;;4.53;3.92;;;26.10;33.80;;;;;;5050720;28;20036;-76
2021/06/08 11:22:11;;;;;;;5.82;3.70;;;26.50;33.20;;;;;;5050467;28;20040;-77
2021/06/08 11:24:39;;;;;;;9.35;3.83;;;26.50;33.60;;;;;;5050825;28;20040;-77
2021/06/08 11:27:05;;;;;;;8.85;3.90;;;26.00;34.30;;;;;;5040825;28;20110;-76
2021/06/08 11:29:44;;;;;;;4.15;3.42;;;25.50;35.50;;;;;;5030334;28;20045;-76
2021/06/08 11:32:30;;;;;;;4.18;3.78;;;25.30;36.20;;;;;;5030662;28;20017;-76
2021/06/08 11:35:06;;;;;;;6.05;3.40;;;25.00;37.30;;;;;;5028957;28;20033;-77
2021/06/08 11:38:03;;;;;;;6.50;3.75;;;24.90;37.60;;;;;;5029894;28;20021;-76
2021/06/08 11:40:35;;;;;;;8.20;3.92;;;24.90;37.00;;;;;;5031404;28;20171;-76
2021/06/08 11:43:02;;;;;;;4.15;3.80;;;24.90;37.80;;;;;;5030356;28;20541;-76
2021/06/08 11:45:33;;;;;;;5.00;3.42;;;25.10;37.00;;;;;;5047175;28;20044;-76
2021/06/08 11:47:59;;;;;;;5.80;3.45;;;25.50;36.30;;;;;;5050419;28;20168;-77
2021/06/08 11:50:38;;;;;;;5.82;3.33;;;25.90;35.00;;;;;;5051122;28;20517;-77
2021/06/08 11:53:07;;;;;;;5.82;3.65;;;26.20;34.80;;;;;;5050742;28;20017;-76
2021/06/08 11:55:35;;;;;;;4.35;3.75;;;26.30;33.70;;;;;;5050554;28;20026;-77
2021/06/08 11:58:01;;;;;;;5.63;3.72;;;26.60;33.80;;;;;;5049360;28;20088;-77
2021/06/08 12:00:52;;;;;;;4.35;3.95;;;26.50;33.60;;;;;;5049839;28;20033;-77
2021/06/08 12:03:37;;;;;;;9.30;3.75;;;25.90;33.50;;;;;;5051200;28;20025;-76
2021/06/08 12:06:05;;;;;;;5.72;3.80;;;25.60;34.60;;;;;;5050168;28;20078;-77
2021/06/08 12:08:33;;;;;;;5.70;4.40;;;25.40;34.70;;;;;;5049836;28;20032;-77
2021/06/08 12:11:11;;;;;;;4.47;3.78;;;25.30;34.40;;;;;;5050378;28;20035;-76
2021/06/08 12:13:40;;;;;;;4.78;4.38;;;25.00;34.60;;;;;;5042954;28;20410;-76
2021/06/08 12:16:07;;;;;;;5.72;4.15;;;24.90;35.30;;;;;;5055284;28;20467;-76
2021/06/08 12:18:36;;;;;;;8.45;3.95;;;25.00;36.10;;;;;;5054895;28;20059;-75
2021/06/08 12:21:08;;;;;;;5.15;3.90;;;25.30;35.90;;;;;;5044439;28;20025;-76
2021/06/08 12:23:35;;;;;;;5.60;5.10;;;25.60;35.80;;;;;;5036548;28;20026;-76
2021/06/08 12:26:20;;;;;;;5.60;4.05;;;25.70;35.60;;;;;;5035858;28;20021;-76
2021/06/08 12:29:04;;;;;;;5.00;4.10;;;25.30;35.20;;;;;;5050716;28;20118;-76
2021/06/08 12:31:31;;;;;;;6.28;4.07;;;25.30;35.80;;;;;;5053679;28;20036;-76
2021/06/08 12:33:58;;;;;;;6.15;4.07;;;25.30;35.50;;;;;;5042319;28;20029;-77
2021/06/08 12:36:24;;;;;;;5.75;4.10;;;25.70;34.80;;;;;;5043282;28;20064;-76
2021/06/08 12:38:55;;;;;;;4.68;3.50;;;26.00;34.20;;;;;;5043481;28;20351;-76
2021/06/08 12:41:26;;;;;;;3.95;3.65;;;26.30;34.00;;;;;;5043083;28;20037;-76
2021/06/08 12:43:55;;;;;;;7.22;3.78;;;26.00;32.80;;;;;;5045016;28;20387;-76
2021/06/08 12:46:40;;;;;;;4.25;3.58;;;26.30;33.40;;;;;;5044123;28;20029;-77
2021/06/08 12:49:09;;;;;;;4.47;3.65;;;26.20;33.70;;;;;;5043202;28;20021;-76
2021/06/08 12:51:47;;;;;;;4.47;4.07;;;26.20;33.20;;;;;;5041693;28;20034;-76
2021/06/08 12:54:40;;;;;;;5.40;4.15;;;25.90;33.30;;;;;;5043866;28;20463;-76
2021/06/08 12:57:28;;;;;;;6.53;3.78;;;25.70;34.40;;;;;;5043655;28;20044;-75
2021/06/08 13:00:14;;;;;;;4.13;3.70;;;25.40;35.40;;;;;;5041524;28;20482;-75